Time;durP1;ratioP1;P1;durP2;ratioP2;P2;SDS_P1;SDS_P2;PMS_P1;PMS_P2;Temp;Humidity;BMP_temperature;BMP_pressure;BME280_temperature;BME280_humidity;BME280_pressure;Samples;Min_cycle;Max_cycle;Signal;HPM_P1;HPM_P2
2023/09/05 00:00:11;;;;;;;;;;;18.90;48.30;;;;;;5053332;28;19920;-68
2023/09/05 00:02:38;;;;;;;;;;;19.00;48.50;;;;;;5054303;28;19912;-71
2023/09/05 00:05:07;;;;;;;;;;;19.00;48.30;;;;;;5053958;28;20336;-69
2023/09/05 00:07:51;;;;;;;;;;;18.90;48.30;;;;;;5054226;28;19913;-70
2023/09/05 00:10:17;;;;;;;;;;;18.90;48.60;;;;;;5052684;28;20050;-69
2023/09/05 00:12:44;;;;;;;;;;;18.90;48.80;;;;;;5053648;28;20405;-69
2023/09/05 00:15:12;;;;;;;;;;;18.90;48.80;;;;;;5054347;28;19916;-68
2023/09/05 00:17:39;;;;;;;;;;;18.90;48.70;;;;;;5053746;28;19931;-68
2023/09/05 00:20:06;;;;;;;;;;;18.90;49.00;;;;;;5052781;28;19966;-71
2023/09/05 00:22:32;;;;;;;;;;;18.90;48.90;;;;;;5053264;28;19919;-71
2023/09/05 00:24:58;;;;;;;;;;;18.80;49.00;;;;;;5053319;28;20350;-71
2023/09/05 00:27:24;;;;;;;;;;;18.80;49.10;;;;;;5052972;28;19919;-68
2023/09/05 00:29:49;;;;;;;;;;;18.80;49.20;;;;;;5053061;28;19921;-68
2023/09/05 00:32:18;;;;;;;;;;;18.80;49.30;;;;;;5053552;28;20011;-71
2023/09/05 00:34:44;;;;;;;;;;;18.80;50.00;;;;;;5053425;28;20326;-70
2023/09/05 00:37:10;;;;;;;;;;;18.80;49.10;;;;;;5052799;28;19959;-71
2023/09/05 00:42:23;;;;;;;;;;;18.80;49.50;;;;;;5052637;28;19924;-69
2023/09/05 00:44:49;;;;;;;;;;;18.70;49.70;;;;;;5052857;28;19925;-68
2023/09/05 00:47:16;;;;;;;;;;;18.70;49.70;;;;;;5052502;28;19919;-68
2023/09/05 00:49:47;;;;;;;;;;;18.70;49.70;;;;;;5053054;28;19968;-68
2023/09/05 00:52:13;;;;;;;;;;;18.70;49.40;;;;;;5051811;28;19923;-69
2023/09/05 00:54:40;;;;;;;;;;;18.70;50.00;;;;;;5054322;28;19928;-69
2023/09/05 00:57:08;;;;;;;;;;;18.60;50.30;;;;;;5035734;28;19924;-71
2023/09/05 00:59:34;;;;;;;;;;;18.60;50.30;;;;;;5052710;28;19924;-68
2023/09/05 01:02:00;;;;;;;;;;;18.60;50.20;;;;;;5051725;28;19916;-69
2023/09/05 01:04:26;;;;;;;;;;;18.60;50.30;;;;;;5052639;28;20315;-68
2023/09/05 01:07:29;;;;;;;;;;;18.60;50.20;;;;;;5035359;28;19928;-68
2023/09/05 01:10:15;;;;;;;;;;;18.60;50.20;;;;;;5053734;28;19927;-68
2023/09/05 01:12:41;;;;;;;;;;;18.60;50.30;;;;;;5052161;28;19917;-68
2023/09/05 01:15:08;;;;;;;;;;;18.60;50.60;;;;;;5053231;28;20031;-68
2023/09/05 01:17:34;;;;;;;;;;;18.50;50.80;;;;;;5053629;28;19944;-68
2023/09/05 01:20:00;;;;;;;;;;;18.50;50.80;;;;;;5052075;28;19973;-68
2023/09/05 01:23:04;;;;;;;;;;;18.40;50.90;;;;;;5051406;28;19927;-70
2023/09/05 01:25:30;;;;;;;;;;;18.50;51.00;;;;;;5053039;28;19928;-68
2023/09/05 01:28:00;;;;;;;;;;;18.40;51.20;;;;;;5052191;28;20335;-68
2023/09/05 01:30:28;;;;;;;;;;;18.40;51.10;;;;;;5051364;28;20359;-68
2023/09/05 01:32:54;;;;;;;;;;;18.40;51.30;;;;;;5052028;28;19917;-68
2023/09/05 01:35:19;;;;;;;;;;;18.30;51.30;;;;;;5051709;28;20323;-69
2023/09/05 01:37:45;;;;;;;;;;;18.30;51.50;;;;;;5051998;28;20452;-68
2023/09/05 01:40:12;;;;;;;;;;;18.40;51.60;;;;;;5050898;28;19952;-68
2023/09/05 01:42:38;;;;;;;;;;;18.30;51.10;;;;;;5051894;28;19959;-69
2023/09/05 01:45:05;;;;;;;;;;;18.30;52.30;;;;;;5051500;28;19943;-70
2023/09/05 01:47:31;;;;;;;;;;;18.30;51.50;;;;;;5052784;28;19912;-69
2023/09/05 01:49:57;;;;;;;;;;;18.30;51.70;;;;;;5052895;28;19948;-69
2023/09/05 01:52:22;;;;;;;;;;;18.30;52.10;;;;;;5050792;28;20366;-68
2023/09/05 01:54:48;;;;;;;;;;;18.20;51.80;;;;;;5053109;28;19930;-68
2023/09/05 01:57:14;;;;;;;;;;;18.20;51.90;;;;;;5052364;28;20329;-71
2023/09/05 01:59:40;;;;;;;;;;;18.20;51.90;;;;;;5053123;28;20012;-68
2023/09/05 02:02:06;;;;;;;;;;;18.20;52.00;;;;;;5050924;28;20011;-68
2023/09/05 02:04:32;;;;;;;;;;;18.20;52.40;;;;;;5053133;28;19916;-68
2023/09/05 02:06:58;;;;;;;;;;;18.20;52.30;;;;;;5052375;28;20400;-68
2023/09/05 02:09:24;;;;;;;;;;;18.20;52.10;;;;;;5052954;28;20267;-71
2023/09/05 02:11:49;;;;;;;;;;;18.10;52.20;;;;;;5051704;28;20020;-68
2023/09/05 02:14:15;;;;;;;;;;;18.10;52.40;;;;;;5052809;28;20011;-71
2023/09/05 02:16:41;;;;;;;;;;;18.10;52.70;;;;;;5050920;28;19923;-68
2023/09/05 02:19:07;;;;;;;;;;;18.10;52.50;;;;;;5052623;28;19955;-68
2023/09/05 02:21:33;;;;;;;;;;;18.10;52.60;;;;;;5051458;28;20559;-68
2023/09/05 02:23:59;;;;;;;;;;;18.10;52.50;;;;;;5052615;28;19923;-70
2023/09/05 02:26:25;;;;;;;;;;;18.10;52.70;;;;;;5050724;28;19959;-70
2023/09/05 02:28:51;;;;;;;;;;;18.10;52.70;;;;;;5034316;28;19943;-71
2023/09/05 02:31:17;;;;;;;;;;;18.00;52.70;;;;;;5050201;28;19916;-71
2023/09/05 02:33:43;;;;;;;;;;;18.00;52.70;;;;;;5052286;28;20012;-69
2023/09/05 02:38:59;;;;;;;;;;;18.00;52.90;;;;;;5051094;28;19923;-68
2023/09/05 02:41:25;;;;;;;;;;;17.90;52.90;;;;;;5050140;28;19996;-68
2023/09/05 02:43:51;;;;;;;;;;;17.90;53.00;;;;;;5050779;28;20351;-69
2023/09/05 02:46:17;;;;;;;;;;;17.90;52.90;;;;;;5050545;28;19913;-69
2023/09/05 02:48:43;;;;;;;;;;;17.90;53.10;;;;;;5050810;28;19966;-68
2023/09/05 02:51:10;;;;;;;;;;;17.90;53.40;;;;;;5049845;28;19927;-68
2023/09/05 02:53:37;;;;;;;;;;;17.90;53.50;;;;;;5051905;28;20019;-68
2023/09/05 02:56:04;;;;;;;;;;;17.80;53.50;;;;;;5050331;28;19913;-68
2023/09/05 02:58:31;;;;;;;;;;;17.80;53.40;;;;;;5050632;28;20035;-69
2023/09/05 03:01:16;;;;;;;;;;;17.80;53.00;;;;;;5049672;28;19944;-69
2023/09/05 03:03:43;;;;;;;;;;;17.80;53.70;;;;;;5050749;28;19982;-69
2023/09/05 03:06:28;;;;;;;;;;;17.80;53.80;;;;;;5036654;28;19917;-68
2023/09/05 03:08:53;;;;;;;;;;;17.80;53.70;;;;;;5054563;28;20558;-69
2023/09/05 03:11:19;;;;;;;;;;;17.80;54.00;;;;;;5055071;28;20457;-69
2023/09/05 03:13:46;;;;;;;;;;;17.70;53.40;;;;;;5054570;28;20357;-69
2023/09/05 03:16:12;;;;;;;;;;;17.70;53.80;;;;;;5054302;28;19913;-69
2023/09/05 03:18:38;;;;;;;;;;;17.70;53.60;;;;;;5055868;28;20023;-68
2023/09/05 03:21:04;;;;;;;;;;;17.70;54.20;;;;;;5054881;28;20015;-69
2023/09/05 03:23:31;;;;;;;;;;;17.70;54.10;;;;;;5054625;28;19923;-69
2023/09/05 03:25:57;;;;;;;;;;;17.70;53.80;;;;;;5055351;28;19924;-68
2023/09/05 03:28:23;;;;;;;;;;;17.70;53.70;;;;;;5055627;28;19971;-69
2023/09/05 03:30:49;;;;;;;;;;;17.70;54.50;;;;;;5053243;28;19928;-69
2023/09/05 03:33:15;;;;;;;;;;;17.60;53.70;;;;;;5055727;28;19917;-68
2023/09/05 03:35:42;;;;;;;;;;;17.60;54.10;;;;;;5055102;28;19963;-68
2023/09/05 03:38:09;;;;;;;;;;;17.60;54.20;;;;;;5055473;28;19924;-69
2023/09/05 03:40:35;;;;;;;;;;;17.60;54.20;;;;;;5054476;28;19945;-68
2023/09/05 03:43:01;;;;;;;;;;;17.60;53.80;;;;;;5037332;28;19921;-69
2023/09/05 03:45:27;;;;;;;;;;;17.60;54.20;;;;;;5053687;28;19921;-68
2023/09/05 03:47:53;;;;;;;;;;;17.60;54.50;;;;;;5054232;28;19923;-69
2023/09/05 03:50:21;;;;;;;;;;;17.60;54.40;;;;;;5036367;28;19943;-69
2023/09/05 03:52:46;;;;;;;;;;;17.50;54.60;;;;;;5053917;28;19925;-69
2023/09/05 03:55:13;;;;;;;;;;;17.50;54.80;;;;;;5053380;28;19916;-69
2023/09/05 03:57:39;;;;;;;;;;;17.50;55.00;;;;;;5055074;28;19920;-69
2023/09/05 04:00:07;;;;;;;;;;;17.40;54.40;;;;;;5054122;28;19917;-69
2023/09/05 04:02:33;;;;;;;;;;;17.40;54.80;;;;;;5054855;28;19909;-68
2023/09/05 04:04:59;;;;;;;;;;;17.40;55.10;;;;;;5053652;28;19927;-69
2023/09/05 04:07:24;;;;;;;;;;;17.40;55.10;;;;;;5054719;28;20270;-69
2023/09/05 04:09:50;;;;;;;;;;;17.40;55.00;;;;;;5053635;28;19917;-69
2023/09/05 04:12:16;;;;;;;;;;;17.40;55.10;;;;;;5053874;28;19956;-68
2023/09/05 04:14:42;;;;;;;;;;;17.30;55.60;;;;;;5053280;28;19999;-68
2023/09/05 04:17:08;;;;;;;;;;;17.30;55.80;;;;;;5051918;28;20019;-69
2023/09/05 04:19:34;;;;;;;;;;;17.30;55.60;;;;;;5053505;28;19917;-68
2023/09/05 04:22:00;;;;;;;;;;;17.30;55.70;;;;;;5053581;28;19966;-69
2023/09/05 04:24:25;;;;;;;;;;;17.30;55.60;;;;;;5053232;28;20004;-68
2023/09/05 04:26:53;;;;;;;;;;;17.30;55.70;;;;;;5052968;28;19939;-69
2023/09/05 04:29:19;;;;;;;;;;;17.30;55.70;;;;;;5054076;28;19925;-69
2023/09/05 04:31:45;;;;;;;;;;;17.30;55.80;;;;;;5053555;28;20412;-69
2023/09/05 04:34:11;;;;;;;;;;;17.30;55.70;;;;;;5053280;28;19995;-69
2023/09/05 04:36:37;;;;;;;;;;;17.30;55.80;;;;;;5052812;28;19912;-68
2023/09/05 04:39:03;;;;;;;;;;;17.30;56.10;;;;;;5054415;28;20322;-68
2023/09/05 04:41:29;;;;;;;;;;;17.30;55.90;;;;;;5052246;28;19970;-69
2023/09/05 04:43:55;;;;;;;;;;;17.30;56.20;;;;;;5058261;28;19920;-69
2023/09/05 04:46:22;;;;;;;;;;;17.40;56.20;;;;;;5072367;28;19912;-69
2023/09/05 04:48:48;;;;;;;;;;;17.40;55.80;;;;;;5073837;28;19925;-69
2023/09/05 04:51:14;;;;;;;;;;;17.40;55.70;;;;;;5055331;28;19927;-69
2023/09/05 04:53:40;;;;;;;;;;;17.40;55.70;;;;;;5074102;28;20285;-69
2023/09/05 04:56:06;;;;;;;;;;;17.40;55.90;;;;;;5073626;28;19912;-68
2023/09/05 04:58:32;;;;;;;;;;;17.40;55.20;;;;;;5074333;28;19970;-69
2023/09/05 05:03:45;;;;;;;;;;;17.50;55.80;;;;;;5072642;28;19928;-69
2023/09/05 05:06:11;;;;;;;;;;;17.50;56.30;;;;;;5073550;28;19913;-69
2023/09/05 05:08:37;;;;;;;;;;;17.50;56.00;;;;;;5073630;28;19928;-68
2023/09/05 05:11:04;;;;;;;;;;;17.50;56.10;;;;;;5055156;28;20007;-68
2023/09/05 05:13:30;;;;;;;;;;;17.50;56.10;;;;;;5072524;28;19920;-68
2023/09/05 05:15:56;;;;;;;;;;;17.60;56.10;;;;;;5055187;28;20361;-69
2023/09/05 05:18:22;;;;;;;;;;;17.60;56.00;;;;;;5072311;28;19924;-69
2023/09/05 05:20:48;;;;;;;;;;;17.70;56.10;;;;;;5072474;28;20281;-68
2023/09/05 05:23:13;;;;;;;;;;;17.70;56.10;;;;;;5073738;28;22507;-69
2023/09/05 05:25:39;;;;;;;;;;;17.70;55.90;;;;;;5054929;28;20022;-69
2023/09/05 05:28:05;;;;;;;;;;;17.80;56.00;;;;;;5055069;28;19926;-69
2023/09/05 05:30:50;;;;;;;;;;;17.80;55.40;;;;;;5072281;28;19920;-68
2023/09/05 05:33:16;;;;;;;;;;;17.90;55.70;;;;;;5071889;28;20353;-68
2023/09/05 05:35:42;;;;;;;;;;;17.90;56.00;;;;;;5071648;28;20002;-69
2023/09/05 05:38:07;;;;;;;;;;;18.00;55.80;;;;;;5073289;28;20007;-69
2023/09/05 05:40:33;;;;;;;;;;;18.00;55.90;;;;;;5070920;28;20444;-69
2023/09/05 05:42:59;;;;;;;;;;;18.00;55.80;;;;;;5072928;28;20026;-69
2023/09/05 05:45:25;;;;;;;;;;;18.10;55.70;;;;;;5071249;28;19924;-68
2023/09/05 05:47:53;;;;;;;;;;;18.20;55.50;;;;;;5072890;28;20254;-69
2023/09/05 05:50:19;;;;;;;;;;;18.20;55.50;;;;;;5071913;28;19927;-68
2023/09/05 05:52:46;;;;;;;;;;;18.30;55.30;;;;;;5072924;28;20015;-69
2023/09/05 05:55:12;;;;;;;;;;;18.30;55.20;;;;;;5071079;28;19917;-68
2023/09/05 05:57:38;;;;;;;;;;;18.30;55.10;;;;;;5071648;28;19949;-69
2023/09/05 06:00:05;;;;;;;;;;;18.50;55.10;;;;;;5072096;28;19916;-69
2023/09/05 06:02:31;;;;;;;;;;;18.50;54.80;;;;;;5072516;28;19913;-69
2023/09/05 06:04:57;;;;;;;;;;;18.60;54.60;;;;;;5072550;28;20379;-69
2023/09/05 06:07:22;;;;;;;;;;;18.60;54.30;;;;;;5072214;28;20003;-68
2023/09/05 06:09:48;;;;;;;;;;;18.60;54.30;;;;;;5071405;28;20007;-69
2023/09/05 06:12:14;;;;;;;;;;;18.70;53.70;;;;;;5070430;28;19924;-69
2023/09/05 06:14:40;;;;;;;;;;;18.80;54.30;;;;;;5054700;28;19927;-68
2023/09/05 06:17:06;;;;;;;;;;;18.80;54.10;;;;;;5072103;28;20408;-69
2023/09/05 06:19:32;;;;;;;;;;;18.90;54.00;;;;;;5072817;28;20353;-69
2023/09/05 06:21:58;;;;;;;;;;;18.90;53.80;;;;;;5071457;28;20360;-69
2023/09/05 06:24:25;;;;;;;;;;;19.00;53.60;;;;;;5072718;28;19935;-70
2023/09/05 06:26:50;;;;;;;;;;;19.10;53.60;;;;;;5071989;28;20007;-69
2023/09/05 06:29:16;;;;;;;;;;;19.10;53.70;;;;;;5072168;28;20007;-69
2023/09/05 06:31:43;;;;;;;;;;;19.20;53.60;;;;;;5070328;28;19962;-69
2023/09/05 06:34:09;;;;;;;;;;;19.30;53.20;;;;;;5071060;28;20385;-69
2023/09/05 06:36:35;;;;;;;;;;;19.30;53.10;;;;;;5070734;28;20007;-70
2023/09/05 06:39:02;;;;;;;;;;;19.30;52.90;;;;;;5070689;28;19930;-68
2023/09/05 06:41:29;;;;;;;;;;;19.40;52.70;;;;;;5069643;28;19920;-69
2023/09/05 06:43:54;;;;;;;;;;;19.50;52.90;;;;;;5070777;28;19920;-69
2023/09/05 06:46:20;;;;;;;;;;;19.50;52.80;;;;;;5071822;28;19942;-69
2023/09/05 06:48:46;;;;;;;;;;;19.60;52.70;;;;;;5072225;28;20027;-70
2023/09/05 06:51:12;;;;;;;;;;;19.60;52.50;;;;;;5071176;28;19991;-69
2023/09/05 06:53:38;;;;;;;;;;;19.70;52.50;;;;;;5072193;28;19927;-70
2023/09/05 06:56:05;;;;;;;;;;;19.80;52.20;;;;;;5071616;28;20357;-69
2023/09/05 06:58:31;;;;;;;;;;;19.90;52.10;;;;;;5072233;28;19920;-69
2023/09/05 07:00:57;;;;;;;;;;;19.90;51.90;;;;;;5069814;28;19995;-69
2023/09/05 07:03:24;;;;;;;;;;;20.00;51.80;;;;;;5071993;28;19921;-69
2023/09/05 07:05:51;;;;;;;;;;;20.10;51.70;;;;;;5070302;28;19916;-69
2023/09/05 07:08:17;;;;;;;;;;;20.20;51.10;;;;;;5070561;28;19927;-69
2023/09/05 07:10:43;;;;;;;;;;;20.30;51.10;;;;;;5071208;28;19916;-70
2023/09/05 07:13:08;;;;;;;;;;;20.40;50.60;;;;;;5070658;28;20027;-69
2023/09/05 07:15:35;;;;;;;;;;;20.60;50.90;;;;;;5071456;28;19913;-70
2023/09/05 07:18:00;;;;;;;;;;;20.70;50.40;;;;;;5071803;28;20273;-69
2023/09/05 07:20:26;;;;;;;;;;;21.00;50.20;;;;;;5069741;28;20029;-69
2023/09/05 07:22:52;;;;;;;;;;;21.60;49.80;;;;;;5071793;28;20343;-69
2023/09/05 07:25:18;;;;;;;;;;;22.20;48.90;;;;;;5071224;28;20373;-69
2023/09/05 07:27:44;;;;;;;;;;;22.70;47.20;;;;;;5070596;28;20297;-69
2023/09/05 07:30:10;;;;;;;;;;;23.40;46.40;;;;;;5052778;28;20012;-69
2023/09/05 07:32:38;;;;;;;;;;;23.90;44.30;;;;;;5070480;28;19913;-69
2023/09/05 07:35:04;;;;;;;;;;;24.60;44.50;;;;;;5070343;28;19920;-70
2023/09/05 07:37:30;;;;;;;;;;;25.10;42.90;;;;;;5070223;28;19912;-70
2023/09/05 07:39:56;;;;;;;;;;;25.80;40.70;;;;;;5070298;28;19912;-69
2023/09/05 07:42:22;;;;;;;;;;;26.30;39.40;;;;;;5070693;28;19927;-69
2023/09/05 07:44:48;;;;;;;;;;;26.80;38.00;;;;;;5070503;28;19930;-72
2023/09/05 07:47:14;;;;;;;;;;;27.30;36.50;;;;;;5069942;28;20293;-71
2023/09/05 07:49:41;;;;;;;;;;;27.90;35.30;;;;;;5070445;28;20006;-71
2023/09/05 07:52:07;;;;;;;;;;;28.40;34.60;;;;;;5071822;28;20342;-70
2023/09/05 07:54:35;;;;;;;;;;;28.80;32.20;;;;;;5075526;28;19920;-70
2023/09/05 07:57:01;;;;;;;;;;;29.40;32.00;;;;;;5068443;28;20355;-72
2023/09/05 07:59:26;;;;;;;;;;;29.90;31.40;;;;;;5073724;28;20024;-70
2023/09/05 08:01:52;;;;;;;;;;;30.40;30.50;;;;;;5072968;28;20003;-72
2023/09/05 08:04:19;;;;;;;;;;;30.90;29.50;;;;;;5073859;28;19931;-72
2023/09/05 08:06:45;;;;;;;;;;;31.30;28.30;;;;;;5074660;28;19913;-71
2023/09/05 08:09:11;;;;;;;;;;;31.70;28.10;;;;;;5073578;28;19943;-70
2023/09/05 08:11:36;;;;;;;;;;;32.10;27.90;;;;;;5072788;28;20004;-71
2023/09/05 08:14:02;;;;;;;;;;;32.70;27.10;;;;;;5074968;28;19924;-72
2023/09/05 08:16:29;;;;;;;;;;;33.00;26.50;;;;;;5072850;28;19922;-70
2023/09/05 08:18:55;;;;;;;;;;;33.50;25.20;;;;;;5058370;28;19924;-73
2023/09/05 08:21:21;;;;;;;;;;;33.90;24.80;;;;;;5052403;28;19938;-72
2023/09/05 08:23:50;;;;;;;;;;;34.30;24.20;;;;;;5054781;28;19924;-72
2023/09/05 08:26:16;;;;;;;;;;;34.60;22.80;;;;;;5054129;28;19920;-72
2023/09/05 08:28:44;;;;;;;;;;;35.10;23.90;;;;;;5054255;28;19921;-71
2023/09/05 08:31:10;;;;;;;;;;;35.50;22.00;;;;;;5052355;28;20003;-71
2023/09/05 08:33:36;;;;;;;;;;;35.90;21.90;;;;;;5053213;28;19925;-72
2023/09/05 08:36:05;;;;;;;;;;;36.50;22.10;;;;;;5052955;28;19958;-72
2023/09/05 08:38:30;;;;;;;;;;;36.80;21.20;;;;;;5054670;28;19923;-71
2023/09/05 08:41:15;;;;;;;;;;;37.10;21.20;;;;;;5052164;28;20023;-72
2023/09/05 08:43:41;;;;;;;;;;;37.60;20.50;;;;;;5054408;28;20082;-72
2023/09/05 08:46:08;;;;;;;;;;;38.10;20.90;;;;;;5052683;28;19917;-71
2023/09/05 08:48:33;;;;;;;;;;;38.50;19.40;;;;;;5036465;28;20373;-71
2023/09/05 08:51:00;;;;;;;;;;;38.80;19.10;;;;;;5051822;28;20003;-71
2023/09/05 08:53:47;;;;;;;;;;;39.40;18.90;;;;;;5052919;28;20339;-72
2023/09/05 08:56:13;;;;;;;;;;;39.70;18.30;;;;;;5035698;28;19938;-72
2023/09/05 08:58:40;;;;;;;;;;;39.90;17.60;;;;;;5036007;28;20377;-72
2023/09/05 09:01:06;;;;;;;;;;;40.20;17.40;;;;;;5035142;28;20373;-71
2023/09/05 09:03:35;;;;;;;;;;;40.60;17.20;;;;;;5053267;28;19931;-71
2023/09/05 09:06:01;;;;;;;;;;;40.90;16.70;;;;;;5052148;28;19967;-72
2023/09/05 09:08:38;;;;;;;;;;;41.30;16.10;;;;;;5052454;28;19920;-70
2023/09/05 09:11:24;;;;;;;;;;;41.70;15.90;;;;;;5051750;28;19959;-71
2023/09/05 09:13:57;;;;;;;;;;;42.10;16.10;;;;;;5053864;28;19928;-72
2023/09/05 09:16:23;;;;;;;;;;;42.60;16.00;;;;;;5052125;28;19936;-72
2023/09/05 09:18:50;;;;;;;;;;;42.70;15.30;;;;;;5052183;28;19924;-72
2023/09/05 09:21:17;;;;;;;;;;;43.20;15.20;;;;;;5051277;28;19925;-72
2023/09/05 09:23:44;;;;;;;;;;;43.30;14.90;;;;;;5035511;28;19970;-71
2023/09/05 09:26:13;;;;;;;;;;;43.60;14.60;;;;;;5051747;28;19943;-72
2023/09/05 09:28:39;;;;;;;;;;;44.00;14.50;;;;;;5052144;28;19925;-71
2023/09/05 09:31:13;;;;;;;;;;;44.30;13.40;;;;;;5052371;28;19920;-71
2023/09/05 09:33:40;;;;;;;;;;;44.50;14.00;;;;;;5035536;28;20444;-72
2023/09/05 09:36:09;;;;;;;;;;;44.70;13.10;;;;;;5051449;28;20007;-72
2023/09/05 09:38:35;;;;;;;;;;;44.80;13.30;;;;;;5052097;28;20373;-72
2023/09/05 09:41:03;;;;;;;;;;;44.80;12.90;;;;;;5050967;28;20305;-71
2023/09/05 09:43:53;;;;;;;;;;;44.90;12.90;;;;;;5051987;28;20328;-71
2023/09/05 09:46:19;;;;;;;;;;;45.40;13.00;;;;;;5052790;28;19920;-72
2023/09/05 09:48:46;;;;;;;;;;;45.50;12.90;;;;;;5051788;28;19921;-71
2023/09/05 09:51:13;;;;;;;;;;;45.80;12.80;;;;;;5050855;28;19921;-72
2023/09/05 09:53:39;;;;;;;;;;;46.20;12.40;;;;;;5051556;28;19960;-71
2023/09/05 09:56:26;;;;;;;;;;;46.70;12.00;;;;;;5052419;28;19917;-71
2023/09/05 09:58:56;;;;;;;;;;;47.00;12.40;;;;;;5053044;28;19917;-71
2023/09/05 10:01:23;;;;;;;;;;;47.20;11.90;;;;;;5034594;28;20405;-73
2023/09/05 10:03:49;;;;;;;;;;;47.40;12.00;;;;;;5051491;28;20281;-71
2023/09/05 10:06:15;;;;;;;;;;;47.60;12.00;;;;;;5051102;28;20015;-72
2023/09/05 10:08:42;;;;;;;;;;;47.80;11.30;;;;;;5051524;28;19917;-71
2023/09/05 10:11:10;;;;;;;;;;;48.20;11.30;;;;;;5050480;28;19964;-73
2023/09/05 10:13:37;;;;;;;;;;;48.50;11.40;;;;;;5051221;28;19916;-71
2023/09/05 10:16:04;;;;;;;;;;;48.50;10.70;;;;;;5050334;28;19999;-71
2023/09/05 10:18:31;;;;;;;;;;;48.70;10.70;;;;;;5051164;28;19924;-73
2023/09/05 10:21:00;;;;;;;;;;;48.70;10.40;;;;;;5050202;28;19925;-73
2023/09/05 10:23:29;;;;;;;;;;;48.80;10.30;;;;;;5051135;28;20332;-71
2023/09/05 10:25:57;;;;;;;;;;;48.90;10.30;;;;;;5052023;28;20362;-71
2023/09/05 10:28:27;;;;;;;;;;;49.10;10.50;;;;;;5051023;28;19920;-72
2023/09/05 10:30:54;;;;;;;;;;;49.20;10.30;;;;;;5050131;28;19917;-71
2023/09/05 10:33:42;;;;;;;;;;;49.50;10.20;;;;;;5051116;28;20384;-72
2023/09/05 10:36:47;;;;;;;;;;;49.50;10.10;;;;;;5050646;28;20361;-72
2023/09/05 10:39:33;;;;;;;;;;;49.00;10.10;;;;;;5052370;28;20399;-71
2023/09/05 10:41:59;;;;;;;;;;;48.10;10.90;;;;;;5051262;28;19927;-70
2023/09/05 10:44:25;;;;;;;;;;;46.60;11.30;;;;;;5052182;28;19921;-71
2023/09/05 10:46:53;;;;;;;;;;;45.10;12.40;;;;;;5051754;28;19913;-72
2023/09/05 10:49:19;;;;;;;;;;;45.60;11.80;;;;;;5051135;28;20576;-72
2023/09/05 10:52:22;;;;;;;;;;;45.20;12.60;;;;;;5050096;28;19916;-72
2023/09/05 10:54:48;;;;;;;;;;;44.80;12.60;;;;;;5052414;28;19947;-71
2023/09/05 10:57:52;;;;;;;;;;;43.90;13.40;;;;;;5051663;28;19916;-70
2023/09/05 11:00:18;;;;;;;;;;;44.00;13.40;;;;;;5049820;28;20454;-73
2023/09/05 11:02:46;;;;;;;;;;;45.00;13.30;;;;;;5052156;28;19912;-70
2023/09/05 11:05:18;;;;;;;;;;;43.90;12.80;;;;;;5050252;28;20449;-70
2023/09/05 11:08:03;;;;;;;;;;;42.70;13.70;;;;;;5050714;28;19917;-72
2023/09/05 11:10:53;;;;;;;;;;;41.70;15.20;;;;;;5051042;28;19916;-71
2023/09/05 11:13:19;;;;;;;;;;;41.60;15.40;;;;;;5050834;28;20464;-70
2023/09/05 11:15:45;;;;;;;;;;;43.30;14.80;;;;;;5050150;28;19913;-71
2023/09/05 11:18:30;;;;;;;;;;;44.90;13.20;;;;;;5050577;28;20035;-72
2023/09/05 11:20:57;;;;;;;;;;;45.50;12.90;;;;;;5051216;28;19917;-71
2023/09/05 11:26:10;;;;;;;;;;;46.90;11.70;;;;;;5051475;28;19967;-71
2023/09/05 11:28:37;;;;;;;;;;;47.90;11.50;;;;;;5054372;28;19924;-72
2023/09/05 11:31:04;;;;;;;;;;;48.30;11.10;;;;;;5053469;28;20346;-70
2023/09/05 11:33:29;;;;;;;;;;;47.90;10.90;;;;;;5054486;28;20007;-71
2023/09/05 11:35:55;;;;;;;;;;;47.90;11.00;;;;;;5037326;28;19970;-72
2023/09/05 11:38:23;;;;;;;;;;;48.50;10.80;;;;;;5054276;28;19927;-71
2023/09/05 11:41:09;;;;;;;;;;;48.40;10.90;;;;;;5053341;28;19921;-72
2023/09/05 11:43:35;;;;;;;;;;;46.80;11.50;;;;;;5055635;28;20039;-72
2023/09/05 11:46:01;;;;;;;;;;;44.80;12.60;;;;;;5054896;28;19923;-72
2023/09/05 11:48:31;;;;;;;;;;;43.00;14.10;;;;;;5055259;28;20390;-72
2023/09/05 11:50:58;;;;;;;;;;;41.30;14.90;;;;;;5053159;28;19975;-72
2023/09/05 11:53:24;;;;;;;;;;;39.90;15.80;;;;;;5054036;28;19920;-72
2023/09/05 11:55:50;;;;;;;;;;;38.90;16.30;;;;;;5053380;28;19928;-72
2023/09/05 11:58:18;;;;;;;;;;;38.10;17.00;;;;;;5037326;28;20331;-72
2023/09/05 12:00:45;;;;;;;;;;;37.60;18.10;;;;;;5052752;28;19966;-71
2023/09/05 12:03:14;;;;;;;;;;;36.80;18.20;;;;;;5053802;28;20421;-71
2023/09/05 12:05:42;;;;;;;;;;;36.30;18.80;;;;;;5053254;28;20288;-71
2023/09/05 12:08:08;;;;;;;;;;;35.90;19.60;;;;;;5053698;28;19921;-70
2023/09/05 12:10:55;;;;;;;;;;;35.40;20.20;;;;;;5053929;28;20004;-70
2023/09/05 12:13:43;;;;;;;;;;;34.80;20.70;;;;;;5054947;28;19921;-71
2023/09/05 12:16:10;;;;;;;;;;;34.90;20.90;;;;;;5053229;28;20016;-70
2023/09/05 12:18:37;;;;;;;;;;;34.60;21.30;;;;;;5054774;28;19920;-71
2023/09/05 12:21:03;;;;;;;;;;;34.30;21.70;;;;;;5052451;28;19927;-70
2023/09/05 12:23:30;;;;;;;;;;;34.30;22.10;;;;;;5054782;28;19925;-70
2023/09/05 12:25:57;;;;;;;;;;;34.30;22.10;;;;;;5052925;28;19958;-70
2023/09/05 12:28:25;;;;;;;;;;;33.90;22.20;;;;;;5053176;28;19924;-71
2023/09/05 12:30:53;;;;;;;;;;;33.50;22.70;;;;;;5052296;28;19923;-71
2023/09/05 12:33:20;;;;;;;;;;;34.60;23.10;;;;;;5053254;28;19927;-70
2023/09/05 12:35:46;;;;;;;;;;;37.70;19.30;;;;;;5052822;28;19920;-70
2023/09/05 12:38:13;;;;;;;;;;;37.00;19.30;;;;;;5035402;28;19921;-71
2023/09/05 12:40:40;;;;;;;;;;;37.20;19.20;;;;;;5035430;28;19978;-71
2023/09/05 12:43:06;;;;;;;;;;;37.50;20.00;;;;;;5053030;28;19931;-70
2023/09/05 12:48:16;;;;;;;;;;;40.30;17.30;;;;;;5054264;28;20015;-72
2023/09/05 12:50:45;;;;;;;;;;;39.00;18.10;;;;;;5051993;28;19917;-70
2023/09/05 12:53:11;;;;;;;;;;;37.50;18.70;;;;;;5054301;28;20365;-71
2023/09/05 12:55:37;;;;;;;;;;;36.40;20.00;;;;;;5053577;28;19963;-71
2023/09/05 12:58:06;;;;;;;;;;;35.50;20.30;;;;;;5053906;28;19932;-70
2023/09/05 13:00:50;;;;;;;;;;;35.00;21.10;;;;;;5051758;28;19917;-72
2023/09/05 13:03:16;;;;;;;;;;;34.80;21.20;;;;;;5036013;28;19928;-70
2023/09/05 13:05:42;;;;;;;;;;;34.90;21.70;;;;;;5035471;28;19913;-72
2023/09/05 13:08:09;;;;;;;;;;;34.70;22.20;;;;;;5035900;28;20007;-71
2023/09/05 13:10:35;;;;;;;;;;;34.20;22.70;;;;;;5052807;28;19924;-70
2023/09/05 13:13:01;;;;;;;;;;;34.30;22.70;;;;;;5052373;28;20369;-70
2023/09/05 13:15:27;;;;;;;;;;;35.50;21.60;;;;;;5035583;28;19916;-70
2023/09/05 13:17:54;;;;;;;;;;;35.90;20.90;;;;;;5052379;28;19924;-71
2023/09/05 13:20:20;;;;;;;;;;;35.60;21.50;;;;;;5052599;28;19963;-71
2023/09/05 13:25:32;;;;;;;;;;;36.70;20.20;;;;;;5052022;28;19939;-71
2023/09/05 13:27:58;;;;;;;;;;;36.30;20.20;;;;;;5052096;28;19967;-70
2023/09/05 13:30:24;;;;;;;;;;;37.90;19.30;;;;;;5051050;28;19924;-71
2023/09/05 13:32:52;;;;;;;;;;;40.40;17.70;;;;;;5052338;28;19939;-70
2023/09/05 13:35:18;;;;;;;;;;;42.10;16.00;;;;;;5053092;28;19962;-70
2023/09/05 13:37:44;;;;;;;;;;;41.40;16.10;;;;;;5052393;28;19913;-71
2023/09/05 13:40:10;;;;;;;;;;;39.80;16.80;;;;;;5052327;28;20369;-73
2023/09/05 13:42:36;;;;;;;;;;;38.40;17.80;;;;;;5052258;28;19913;-70
2023/09/05 13:45:02;;;;;;;;;;;37.30;19.00;;;;;;5051946;28;19922;-70
2023/09/05 13:47:29;;;;;;;;;;;36.30;19.20;;;;;;5051507;28;20361;-70
2023/09/05 13:49:55;;;;;;;;;;;35.60;20.40;;;;;;5051590;28;19940;-70
2023/09/05 13:52:21;;;;;;;;;;;35.20;21.30;;;;;;5054896;28;19956;-70
2023/09/05 13:54:47;;;;;;;;;;;35.80;20.30;;;;;;5067064;28;19924;-71
2023/09/05 13:57:13;;;;;;;;;;;37.00;20.00;;;;;;5063208;28;19913;-72
2023/09/05 13:59:39;;;;;;;;;;;39.60;18.20;;;;;;5073120;28;19920;-70
2023/09/05 14:02:05;;;;;;;;;;;41.50;16.80;;;;;;5070674;28;19959;-71
2023/09/05 14:04:31;;;;;;;;;;;42.90;15.10;;;;;;5072967;28;20269;-70
2023/09/05 14:06:58;;;;;;;;;;;43.40;14.60;;;;;;5072465;28;20035;-72
2023/09/05 14:09:24;;;;;;;;;;;42.00;14.60;;;;;;5071070;28;19924;-71
2023/09/05 14:11:49;;;;;;;;;;;40.90;15.50;;;;;;5053746;28;20268;-72
2023/09/05 14:14:15;;;;;;;;;;;39.60;16.50;;;;;;5061190;28;19943;-71
2023/09/05 14:16:42;;;;;;;;;;;38.30;17.20;;;;;;5050954;28;19913;-72
2023/09/05 14:19:08;;;;;;;;;;;37.60;17.90;;;;;;5051953;28;19921;-72
2023/09/05 14:21:34;;;;;;;;;;;39.20;17.50;;;;;;5051817;28;20262;-70
2023/09/05 14:24:01;;;;;;;;;;;40.90;15.60;;;;;;5050978;28;19986;-72
2023/09/05 14:26:29;;;;;;;;;;;42.40;15.10;;;;;;5050865;28;19917;-71
2023/09/05 14:28:57;;;;;;;;;;;43.60;14.40;;;;;;5052173;28;19966;-71
2023/09/05 14:31:23;;;;;;;;;;;44.00;13.60;;;;;;5050135;28;19921;-71
2023/09/05 14:33:49;;;;;;;;;;;42.40;14.50;;;;;;5052278;28;19928;-71
2023/09/05 14:36:14;;;;;;;;;;;40.60;15.80;;;;;;5051980;28;19923;-71